createdAt,value
2019-01-08T00:00:59.027Z,100402.78
2019-01-08T00:03:26.772Z,100395.64
2019-01-08T00:05:54.579Z,100383.98
2019-01-08T00:08:22.297Z,100367.64
2019-01-08T00:10:50.065Z,100357.81
2019-01-08T00:13:18.896Z,100344.95
2019-01-08T00:15:47.479Z,100356.28
2019-01-08T00:18:15.255Z,100343.24
2019-01-08T00:20:43.013Z,100333.75
2019-01-08T00:23:10.818Z,100329.59
2019-01-08T00:25:38.527Z,100328.95
2019-01-08T00:28:06.297Z,100325.13
2019-01-08T00:30:34.011Z,100315.20
2019-01-08T00:33:03.447Z,100310.88
2019-01-08T00:35:31.170Z,100305.88
2019-01-08T00:37:58.922Z,100310.00
2019-01-08T00:40:26.640Z,100308.08
2019-01-08T00:42:55.501Z,100308.02
2019-01-08T00:45:23.264Z,100301.87
2019-01-08T00:47:52.272Z,100289.07
2019-01-08T00:50:20.216Z,100274.83
2019-01-08T00:52:47.969Z,100268.17
2019-01-08T00:55:15.728Z,100263.86
2019-01-08T00:57:43.490Z,100256.16
2019-01-08T01:00:11.723Z,100248.66
2019-01-08T01:02:39.491Z,100252.55
2019-01-08T01:05:07.341Z,100248.35
2019-01-08T01:07:35.130Z,100231.81
2019-01-08T01:10:03.061Z,100237.09
2019-01-08T01:12:30.799Z,100231.74
2019-01-08T01:14:58.592Z,100220.09
2019-01-08T01:17:26.335Z,100210.22
2019-01-08T01:19:54.356Z,100193.84
2019-01-08T01:22:22.104Z,100185.81
2019-01-08T01:24:49.879Z,100192.70
2019-01-08T01:27:17.953Z,100185.45
2019-01-08T01:29:45.689Z,100180.67
2019-01-08T01:32:13.450Z,100169.88
2019-01-08T01:34:41.820Z,100162.40
2019-01-08T01:37:09.584Z,100164.31
2019-01-08T01:39:38.142Z,100147.88
2019-01-08T01:42:05.906Z,100143.12
2019-01-08T01:44:33.697Z,100138.66
2019-01-08T01:47:01.642Z,100133.97
2019-01-08T01:49:29.545Z,100125.56
2019-01-08T01:51:58.062Z,100118.16
2019-01-08T01:54:26.883Z,100113.33
2019-01-08T01:56:54.638Z,100104.28
2019-01-08T01:59:22.431Z,100104.62
2019-01-08T02:01:50.186Z,100094.22
2019-01-08T02:04:17.985Z,100090.22
2019-01-08T02:06:45.723Z,100089.47
2019-01-08T02:09:13.496Z,100070.20
2019-01-08T02:11:41.221Z,100066.41
2019-01-08T02:14:10.570Z,100057.37
2019-01-08T02:16:38.539Z,100042.82
2019-01-08T02:19:06.318Z,100043.67
2019-01-08T02:21:34.039Z,100036.91
2019-01-08T02:24:03.683Z,100041.23
2019-01-08T02:26:31.743Z,100038.27
2019-01-08T02:28:59.771Z,100036.84
2019-01-08T02:31:27.565Z,100028.92
2019-01-08T02:33:56.465Z,100029.07
2019-01-08T02:36:25.657Z,100020.61
2019-01-08T02:38:53.736Z,100010.91
2019-01-08T02:41:22.960Z,100007.31
2019-01-08T02:43:51.021Z,100006.86
2019-01-08T02:46:18.804Z,100001.88
2019-01-08T02:48:46.611Z,99996.43
2019-01-08T02:51:14.377Z,100001.28
2019-01-08T02:53:43.797Z,100002.02
2019-01-08T02:56:11.676Z,99993.86
2019-01-08T02:58:41.756Z,99993.35
2019-01-08T03:01:09.587Z,99986.26
2019-01-08T03:03:37.326Z,99971.91
2019-01-08T03:06:05.129Z,99963.47
2019-01-08T03:08:32.906Z,99954.40
2019-01-08T03:11:00.655Z,99951.42
2019-01-08T03:13:30.320Z,99958.62
2019-01-08T03:15:58.114Z,99936.92
2019-01-08T03:18:25.869Z,99947.13
2019-01-08T03:20:54.370Z,99945.00
2019-01-08T03:23:22.369Z,99941.73
2019-01-08T03:25:50.128Z,99943.78
2019-01-08T03:28:17.906Z,99940.96
2019-01-08T03:30:45.771Z,99930.27
2019-01-08T03:33:13.494Z,99926.20
2019-01-08T03:35:41.454Z,99923.72
2019-01-08T03:38:09.236Z,99929.56
2019-01-08T03:40:37.112Z,99930.82
2019-01-08T03:43:04.876Z,99917.15
2019-01-08T03:45:32.894Z,99918.85
2019-01-08T03:48:00.674Z,99904.05
2019-01-08T03:50:28.406Z,99886.45
2019-01-08T03:52:56.482Z,99891.71
2019-01-08T03:55:24.226Z,99888.27
2019-01-08T03:57:53.296Z,99872.76
2019-01-08T04:00:21.051Z,99874.59
2019-01-08T04:02:48.814Z,99872.55
2019-01-08T04:05:18.780Z,99861.84
2019-01-08T04:07:46.817Z,99862.84
2019-01-08T04:10:14.568Z,99861.08
2019-01-08T04:12:42.324Z,99849.24
2019-01-08T04:15:10.264Z,99841.92
2019-01-08T04:17:38.034Z,99834.28
2019-01-08T04:20:05.750Z,99833.36
2019-01-08T04:22:33.517Z,99830.10
2019-01-08T04:25:01.236Z,99832.35
2019-01-08T04:27:29.266Z,99830.76
2019-01-08T04:29:57.089Z,99827.88
2019-01-08T04:32:25.035Z,99822.16
2019-01-08T04:34:52.864Z,99815.35
2019-01-08T04:37:20.679Z,99819.70
2019-01-08T04:39:48.447Z,99803.02
2019-01-08T04:42:16.239Z,99811.26
2019-01-08T04:44:43.971Z,99812.39
2019-01-08T04:47:11.757Z,99804.56
2019-01-08T04:49:39.497Z,99797.58
2019-01-08T04:52:07.279Z,99792.22
2019-01-08T04:54:35.181Z,99802.01
2019-01-08T04:57:02.911Z,99795.70
2019-01-08T04:59:30.735Z,99780.47
2019-01-08T05:01:58.452Z,99778.61
2019-01-08T05:04:26.205Z,99759.87
2019-01-08T05:06:54.290Z,99750.70
2019-01-08T05:09:22.068Z,99756.38
2019-01-08T05:11:51.232Z,99758.02
2019-01-08T05:14:19.018Z,99747.81
2019-01-08T05:16:46.973Z,99745.14
2019-01-08T05:19:15.054Z,99742.67
2019-01-08T05:21:43.078Z,99741.74
2019-01-08T05:24:11.076Z,99732.88
2019-01-08T05:26:38.865Z,99732.25
2019-01-08T05:29:06.624Z,99720.64
2019-01-08T05:31:34.374Z,99722.59
2019-01-08T05:34:02.354Z,99713.32
2019-01-08T05:36:30.104Z,99712.92
2019-01-08T05:38:59.099Z,99714.98
2019-01-08T05:41:26.875Z,99709.75
2019-01-08T05:43:54.655Z,99702.02
2019-01-08T05:46:22.366Z,99694.09
2019-01-08T05:48:50.148Z,99690.07
2019-01-08T05:51:18.030Z,99669.99
2019-01-08T05:53:46.144Z,99676.08
2019-01-08T05:56:13.906Z,99671.12
2019-01-08T05:58:41.714Z,99672.25
2019-01-08T06:01:10.732Z,99660.72
2019-01-08T06:03:38.503Z,99663.61
2019-01-08T06:06:06.270Z,99662.08
2019-01-08T06:08:36.008Z,99654.98
2019-01-08T06:11:03.778Z,99654.66
2019-01-08T06:13:31.535Z,99648.09
2019-01-08T06:15:59.301Z,99651.25
2019-01-08T06:18:27.094Z,99654.13
2019-01-08T06:20:54.890Z,99647.24
2019-01-08T06:23:22.640Z,99643.95
2019-01-08T06:25:50.408Z,99636.72
2019-01-08T06:28:18.148Z,99624.09
2019-01-08T06:30:45.923Z,99613.37
2019-01-08T06:33:13.709Z,99615.86
2019-01-08T06:35:41.499Z,99603.16
2019-01-08T06:38:10.047Z,99600.41
2019-01-08T06:40:37.879Z,99598.02
2019-01-08T06:43:06.425Z,99596.08
2019-01-08T06:45:34.172Z,99586.22
2019-01-08T06:48:01.913Z,99579.84
2019-01-08T06:50:29.885Z,99575.95
2019-01-08T06:52:57.649Z,99576.16
2019-01-08T06:55:25.413Z,99557.31
2019-01-08T06:57:55.639Z,99563.40
2019-01-08T07:00:23.478Z,99558.96
2019-01-08T07:02:51.219Z,99555.86
2019-01-08T07:05:19.026Z,99550.82
2019-01-08T07:07:47.819Z,99548.88
2019-01-08T07:10:15.631Z,99548.88
2019-01-08T07:12:43.420Z,99542.41
2019-01-08T07:15:11.142Z,99541.67
2019-01-08T07:17:38.916Z,99547.03
2019-01-08T07:20:07.422Z,99541.31
2019-01-08T07:22:35.182Z,99540.78
2019-01-08T07:25:03.044Z,99529.12
2019-01-08T07:27:30.798Z,99521.41
2019-01-08T07:29:58.568Z,99527.16
2019-01-08T07:32:27.512Z,99519.02
2019-01-08T07:34:55.238Z,99508.82
2019-01-08T07:37:22.990Z,99507.80
2019-01-08T07:39:51.300Z,99511.10
2019-01-08T07:42:19.256Z,99513.23
2019-01-08T07:44:47.024Z,99493.27
2019-01-08T07:47:14.775Z,99503.11
2019-01-08T07:49:42.818Z,99495.04
2019-01-08T07:52:11.004Z,99488.75
2019-01-08T07:54:38.821Z,99487.91
2019-01-08T07:57:06.742Z,99496.19
2019-01-08T07:59:34.525Z,99487.80
2019-01-08T08:02:02.752Z,99493.16
2019-01-08T08:04:30.515Z,99481.94
2019-01-08T08:06:58.461Z,99470.51
2019-01-08T08:09:28.083Z,99471.81
2019-01-08T08:11:56.649Z,99475.21
2019-01-08T08:14:24.901Z,99467.66
2019-01-08T08:16:53.217Z,99456.73
2019-01-08T08:19:25.349Z,99460.16
2019-01-08T08:21:53.887Z,99462.62
2019-01-08T08:24:21.616Z,99453.86
2019-01-08T08:26:49.643Z,99449.88
2019-01-08T08:29:17.383Z,99455.62
2019-01-08T08:31:47.495Z,99441.19
2019-01-08T08:34:15.242Z,99454.80
2019-01-08T08:36:44.114Z,99453.89
2019-01-08T08:39:12.479Z,99445.20
2019-01-08T08:41:42.501Z,99448.83
2019-01-08T08:44:10.553Z,99432.38
2019-01-08T08:46:38.359Z,99433.95
2019-01-08T08:49:06.149Z,99444.44
2019-01-08T08:51:35.157Z,99437.35
2019-01-08T08:54:02.939Z,99430.05
2019-01-08T08:56:30.701Z,99422.43
2019-01-08T08:58:58.471Z,99419.53
2019-01-08T09:01:26.192Z,99416.06
2019-01-08T09:03:53.970Z,99405.25
2019-01-08T09:06:21.749Z,99410.16
2019-01-08T09:08:49.495Z,99405.98
2019-01-08T09:11:17.287Z,99407.23
2019-01-08T09:13:45.069Z,99396.12
2019-01-08T09:16:12.842Z,99390.48
2019-01-08T09:18:40.659Z,99380.88
2019-01-08T09:21:08.462Z,99375.33
2019-01-08T09:23:37.740Z,99379.47
2019-01-08T09:26:05.488Z,99385.00
2019-01-08T09:28:33.272Z,99375.53
2019-01-08T09:31:01.028Z,99381.47
2019-01-08T09:33:28.783Z,99369.68
2019-01-08T09:35:56.885Z,99367.16
2019-01-08T09:38:24.932Z,99363.28
2019-01-08T09:40:52.671Z,99352.41
2019-01-08T09:43:20.436Z,99355.31
2019-01-08T09:45:49.282Z,99351.20
2019-01-08T09:48:17.047Z,99345.08
2019-01-08T09:50:44.815Z,99344.16
2019-01-08T09:53:12.575Z,99332.50
2019-01-08T09:55:40.353Z,99328.45
2019-01-08T09:58:08.428Z,99319.68
2019-01-08T10:00:36.195Z,99301.58
2019-01-08T10:03:03.973Z,99300.75
2019-01-08T10:05:31.805Z,99298.13
2019-01-08T10:07:59.560Z,99285.02
2019-01-08T10:10:27.345Z,99287.73
2019-01-08T10:12:55.115Z,99282.66
2019-01-08T10:15:22.984Z,99293.05
2019-01-08T10:17:50.736Z,99270.56
2019-01-08T10:20:18.534Z,99267.45
2019-01-08T10:22:46.300Z,99268.24
2019-01-08T10:25:14.190Z,99247.55
2019-01-08T10:27:41.941Z,99244.95
2019-01-08T10:30:10.206Z,99240.34
2019-01-08T10:32:38.019Z,99228.52
2019-01-08T10:35:06.374Z,99220.78
2019-01-08T10:37:34.154Z,99205.95
2019-01-08T10:40:01.978Z,99202.88
2019-01-08T10:42:29.737Z,99200.88
2019-01-08T10:44:57.551Z,99189.51
2019-01-08T10:47:25.324Z,99178.09
2019-01-08T10:49:53.120Z,99168.39
2019-01-08T10:52:20.876Z,99146.67
2019-01-08T10:54:48.674Z,99143.10
2019-01-08T10:57:16.508Z,99144.06
2019-01-08T10:59:44.284Z,99137.02
2019-01-08T11:02:12.393Z,99130.24
2019-01-08T11:04:40.182Z,99129.97
2019-01-08T11:07:08.036Z,99132.58
2019-01-08T11:09:35.826Z,99125.69
2019-01-08T11:12:03.636Z,99118.94
2019-01-08T11:14:31.372Z,99119.23
2019-01-08T11:16:59.300Z,99111.13
2019-01-08T11:19:27.060Z,99116.72
2019-01-08T11:21:54.819Z,99112.25
2019-01-08T11:24:22.551Z,99120.97
2019-01-08T11:26:50.426Z,99107.44
2019-01-08T11:29:18.202Z,99118.66
2019-01-08T11:31:48.903Z,99101.56
2019-01-08T11:34:15.648Z,99095.09
2019-01-08T11:36:43.457Z,99103.36
2019-01-08T11:39:11.225Z,99101.80
2019-01-08T11:41:39.008Z,99104.61
2019-01-08T11:44:06.812Z,99101.98
2019-01-08T11:46:34.684Z,99098.00
2019-01-08T11:49:02.773Z,99090.98
2019-01-08T11:51:30.693Z,99088.00
2019-01-08T11:53:58.462Z,99079.30
2019-01-08T11:56:26.253Z,99069.84
2019-01-08T11:58:53.995Z,99063.05
2019-01-08T12:01:24.039Z,99067.43
2019-01-08T12:03:52.157Z,99064.75
2019-01-08T12:06:22.207Z,99056.20
2019-01-08T12:08:49.933Z,99056.99
2019-01-08T12:11:17.734Z,99060.13
2019-01-08T12:13:45.503Z,99052.17
2019-01-08T12:16:13.283Z,99042.47
2019-01-08T12:18:41.078Z,99048.14
2019-01-08T12:21:08.891Z,99044.95
2019-01-08T12:23:36.773Z,99051.13
2019-01-08T12:26:04.526Z,99044.69
2019-01-08T12:28:32.325Z,99044.61
2019-01-08T12:31:00.109Z,99035.17
2019-01-08T12:33:27.926Z,99032.16
2019-01-08T12:35:55.699Z,99043.08
2019-01-08T12:38:23.486Z,99046.36
2019-01-08T12:40:51.288Z,99039.52
2019-01-08T12:43:20.149Z,99036.59
2019-01-08T12:45:50.110Z,99030.45
2019-01-08T12:48:17.893Z,99037.01
2019-01-08T12:50:45.666Z,99051.54
2019-01-08T12:53:13.444Z,99049.28
2019-01-08T12:55:41.508Z,99052.01
2019-01-08T12:58:09.288Z,99042.83
2019-01-08T13:00:37.182Z,99038.16
2019-01-08T13:03:05.030Z,99027.18
2019-01-08T13:05:32.820Z,99030.53
2019-01-08T13:08:00.620Z,99028.38
2019-01-08T13:10:28.396Z,99031.77
2019-01-08T13:12:56.156Z,99021.39
2019-01-08T13:15:23.989Z,99033.96
2019-01-08T13:17:51.781Z,99036.28
2019-01-08T13:20:21.081Z,99041.72
2019-01-08T13:22:48.908Z,99034.09
2019-01-08T13:25:16.689Z,99033.94
2019-01-08T13:27:44.462Z,99016.67
2019-01-08T13:30:12.215Z,99020.57
2019-01-08T13:32:40.748Z,99016.66
2019-01-08T13:35:08.602Z,99015.31
2019-01-08T13:37:36.364Z,99012.44
2019-01-08T13:40:04.286Z,99032.11
2019-01-08T13:42:32.078Z,99025.66
2019-01-08T13:44:59.884Z,99020.91
2019-01-08T13:47:27.680Z,99017.69
2019-01-08T13:49:55.458Z,99019.05
2019-01-08T13:52:23.234Z,99020.38
2019-01-08T13:54:51.030Z,99022.17
2019-01-08T13:57:21.356Z,99018.71
2019-01-08T13:59:49.186Z,99013.95
2019-01-08T14:02:16.984Z,99020.28
2019-01-08T14:04:44.784Z,99020.34
2019-01-08T14:07:13.193Z,99033.75
2019-01-08T14:09:41.018Z,99032.98
2019-01-08T14:12:08.766Z,99041.81
2019-01-08T14:14:36.547Z,99040.36
2019-01-08T14:17:04.311Z,99031.33
2019-01-08T14:19:32.120Z,99030.39
2019-01-08T14:21:59.886Z,99059.02
2019-01-08T14:24:27.765Z,99047.71
2019-01-08T14:26:55.564Z,99041.47
2019-01-08T14:29:23.309Z,99042.21
2019-01-08T14:31:51.099Z,99041.47
2019-01-08T14:34:18.906Z,99037.31
2019-01-08T14:36:46.652Z,99038.58
2019-01-08T14:39:14.426Z,99039.31
2019-01-08T14:41:42.185Z,99044.86
2019-01-08T14:44:10.215Z,99038.56
2019-01-08T14:46:38.349Z,99038.94
2019-01-08T14:49:06.075Z,99036.45
2019-01-08T14:51:33.853Z,99039.67
2019-01-08T14:54:01.592Z,99037.83
2019-01-08T14:56:29.417Z,99037.65
2019-01-08T14:58:57.173Z,99030.45
2019-01-08T15:01:24.961Z,99043.27
2019-01-08T15:03:52.781Z,99044.43
2019-01-08T15:06:20.638Z,99038.53
2019-01-08T15:08:48.403Z,99037.88
2019-01-08T15:11:16.200Z,99038.98
2019-01-08T15:13:43.970Z,99022.69
2019-01-08T15:16:11.777Z,99034.00
2019-01-08T15:18:39.517Z,99036.07
2019-01-08T15:21:07.341Z,99049.98
2019-01-08T15:23:35.078Z,99036.20
2019-01-08T15:26:02.905Z,99046.19
2019-01-08T15:28:30.700Z,99046.33
2019-01-08T15:30:58.503Z,99048.03
2019-01-08T15:33:26.250Z,99039.95
2019-01-08T15:35:54.082Z,99051.95
2019-01-08T15:38:21.945Z,99045.48
2019-01-08T15:40:49.779Z,99029.98
2019-01-08T15:43:17.532Z,99031.33
2019-01-08T15:45:45.288Z,99039.31
2019-01-08T15:48:13.060Z,99042.58
2019-01-08T15:50:40.800Z,99041.93
2019-01-08T15:53:08.845Z,99037.59
2019-01-08T15:55:36.632Z,99037.23
2019-01-08T15:58:04.548Z,99038.39
2019-01-08T16:00:32.283Z,99049.38
2019-01-08T16:03:07.223Z,99046.42
2019-01-08T16:05:29.740Z,99039.41
2019-01-08T16:07:57.514Z,99037.50
2019-01-08T16:10:25.333Z,99024.77
2019-01-08T16:12:53.173Z,99036.36
2019-01-08T16:15:20.895Z,99044.25
2019-01-08T16:17:48.648Z,99033.53
2019-01-08T16:20:16.709Z,99028.22
2019-01-08T16:22:44.546Z,99031.09
2019-01-08T16:25:12.363Z,99035.02
2019-01-08T16:27:40.119Z,99035.23
2019-01-08T16:30:07.947Z,99027.52
2019-01-08T16:32:35.730Z,99032.20
2019-01-08T16:35:03.911Z,99031.36
2019-01-08T16:37:31.749Z,99035.84
2019-01-08T16:39:59.587Z,99026.84
2019-01-08T16:42:27.389Z,99030.08
2019-01-08T16:44:55.129Z,99031.13
2019-01-08T16:47:23.105Z,99025.83
2019-01-08T16:49:50.872Z,99031.88
2019-01-08T16:52:18.651Z,99027.30
2019-01-08T16:55:01.856Z,99026.84
2019-01-08T16:57:29.737Z,99018.68
2019-01-08T16:59:57.514Z,99018.21
2019-01-08T17:02:25.423Z,99023.00
2019-01-08T17:04:53.207Z,99012.11
2019-01-08T17:07:21.012Z,99017.01
2019-01-08T17:09:48.826Z,99010.17
2019-01-08T17:12:16.611Z,99020.70
2019-01-08T17:15:10.514Z,99024.21
2019-01-08T17:17:38.366Z,99016.95
2019-01-08T17:20:07.062Z,99029.05
2019-01-08T17:22:34.846Z,99029.30
2019-01-08T17:25:03.339Z,99017.69
2019-01-08T17:27:51.967Z,99015.97
2019-01-08T17:30:19.730Z,99016.88
2019-01-08T17:32:47.500Z,99006.83
2019-01-08T17:35:15.329Z,99017.27
2019-01-08T17:37:43.316Z,99016.58
2019-01-08T17:40:11.102Z,99015.08
2019-01-08T17:42:40.001Z,99014.80
2019-01-08T17:45:35.341Z,99021.17
2019-01-08T17:48:13.046Z,99015.17
2019-01-08T17:50:41.294Z,99020.74
2019-01-08T17:53:09.027Z,99022.98
2019-01-08T17:55:38.852Z,99033.66
2019-01-08T17:58:41.285Z,99030.92
2019-01-08T18:01:25.284Z,99038.04
2019-01-08T18:03:53.122Z,99033.14
2019-01-08T18:06:20.936Z,99040.27
2019-01-08T18:08:48.963Z,99035.22
2019-01-08T18:11:16.768Z,99024.61
2019-01-08T18:13:44.699Z,99033.39
2019-01-08T18:16:12.448Z,99035.39
2019-01-08T18:18:40.244Z,99031.22
2019-01-08T18:21:08.005Z,99053.38
2019-01-08T18:23:35.805Z,99035.45
2019-01-08T18:26:03.572Z,99039.98
2019-01-08T18:28:32.569Z,99033.88
2019-01-08T18:31:00.613Z,99024.23
2019-01-08T18:33:28.342Z,99052.77
2019-01-08T18:35:56.183Z,99039.78
2019-01-08T18:38:23.945Z,99035.39
2019-01-08T18:40:51.743Z,99042.81
2019-01-08T18:43:19.744Z,99050.52
2019-01-08T18:45:47.891Z,99052.30
2019-01-08T18:48:15.647Z,99045.33
2019-01-08T18:50:43.461Z,99041.97
2019-01-08T18:53:11.211Z,99049.00
2019-01-08T18:55:39.074Z,99054.28
2019-01-08T18:58:07.161Z,99050.12
2019-01-08T19:00:34.933Z,99054.73
2019-01-08T19:03:02.725Z,99058.68
2019-01-08T19:05:30.565Z,99039.67
2019-01-08T19:07:58.417Z,99048.36
2019-01-08T19:10:26.279Z,99048.69
2019-01-08T19:12:54.038Z,99054.03
2019-01-08T19:15:21.890Z,99051.77
2019-01-08T19:17:49.851Z,99048.36
2019-01-08T19:20:17.617Z,99046.45
2019-01-08T19:22:45.414Z,99050.34
2019-01-08T19:25:13.619Z,99067.41
2019-01-08T19:27:41.419Z,99055.28
2019-01-08T19:30:09.741Z,99080.68
2019-01-08T19:32:37.502Z,99082.66
2019-01-08T19:35:05.263Z,99072.94
2019-01-08T19:37:33.033Z,99083.19
2019-01-08T19:40:00.808Z,99075.55
2019-01-08T19:42:28.890Z,99089.88
2019-01-08T19:44:56.681Z,99096.90
2019-01-08T19:47:24.461Z,99098.23
2019-01-08T19:49:52.223Z,99088.49
2019-01-08T19:52:20.219Z,99088.89
2019-01-08T19:54:47.975Z,99091.13
2019-01-08T19:57:15.747Z,99082.83
2019-01-08T19:59:43.525Z,99091.91
2019-01-08T20:02:11.287Z,99086.12
2019-01-08T20:04:39.070Z,99095.03
2019-01-08T20:07:06.888Z,99093.56
2019-01-08T20:09:34.652Z,99093.41
2019-01-08T20:12:02.422Z,99102.13
2019-01-08T20:14:31.592Z,99086.81
2019-01-08T20:16:59.382Z,99087.61
2019-01-08T20:19:27.661Z,99088.23
2019-01-08T20:21:55.447Z,99082.14
2019-01-08T20:24:23.422Z,99084.84
2019-01-08T20:26:51.177Z,99089.37
2019-01-08T20:29:18.923Z,99085.69
2019-01-08T20:31:47.037Z,99086.20
2019-01-08T20:34:14.807Z,99090.70
2019-01-08T20:36:42.569Z,99083.42
2019-01-08T20:39:14.381Z,99080.31
2019-01-08T20:41:42.510Z,99090.64
2019-01-08T20:44:10.267Z,99089.55
2019-01-08T20:46:38.055Z,99089.94
2019-01-08T20:49:05.893Z,99076.70
2019-01-08T20:51:33.655Z,99088.25
2019-01-08T20:54:01.402Z,99090.67
2019-01-08T20:56:29.217Z,99088.00
2019-01-08T20:58:57.001Z,99089.09
2019-01-08T21:01:24.765Z,99075.73
2019-01-08T21:03:52.561Z,99088.29
2019-01-08T21:06:20.397Z,99084.97
2019-01-08T21:08:48.194Z,99073.82
2019-01-08T21:11:15.960Z,99087.46
2019-01-08T21:13:43.740Z,99085.87
2019-01-08T21:16:11.492Z,99094.25
2019-01-08T21:18:40.664Z,99096.12
2019-01-08T21:21:08.587Z,99099.69
2019-01-08T21:23:36.458Z,99094.56
2019-01-08T21:26:04.211Z,99104.63
2019-01-08T21:28:31.984Z,99110.84
2019-01-08T21:30:59.772Z,99105.78
2019-01-08T21:33:27.558Z,99121.95
2019-01-08T21:35:55.354Z,99117.08
2019-01-08T21:38:23.278Z,99117.91
2019-01-08T21:40:51.048Z,99107.66
2019-01-08T21:43:18.841Z,99109.39
2019-01-08T21:45:46.751Z,99118.87
2019-01-08T21:48:14.759Z,99115.19
2019-01-08T21:50:42.473Z,99119.51
2019-01-08T21:53:10.630Z,99123.33
2019-01-08T21:55:38.392Z,99120.55
2019-01-08T21:58:06.079Z,99127.06
2019-01-08T22:00:33.867Z,99127.78
2019-01-08T22:03:01.639Z,99123.25
2019-01-08T22:05:29.415Z,99121.11
2019-01-08T22:07:57.176Z,99121.44
2019-01-08T22:10:26.252Z,99120.27
2019-01-08T22:12:54.005Z,99119.45
2019-01-08T22:15:21.759Z,99114.57
2019-01-08T22:17:49.492Z,99113.22
2019-01-08T22:20:17.483Z,99108.31
2019-01-08T22:22:52.534Z,99117.35
2019-01-08T22:25:14.993Z,99124.33
2019-01-08T22:27:42.759Z,99128.44
2019-01-08T22:30:10.829Z,99128.62
2019-01-08T22:32:38.564Z,99133.65
2019-01-08T22:35:06.729Z,99149.27
2019-01-08T22:37:34.487Z,99141.98
2019-01-08T22:40:02.232Z,99150.66
2019-01-08T22:42:30.105Z,99152.31
2019-01-08T22:44:58.011Z,99145.36
2019-01-08T22:47:25.743Z,99148.62
2019-01-08T22:49:53.509Z,99141.58
2019-01-08T22:52:21.291Z,99147.91
2019-01-08T22:54:49.059Z,99153.36
2019-01-08T22:57:16.801Z,99137.16
2019-01-08T22:59:44.665Z,99148.03
2019-01-08T23:02:13.741Z,99144.94
2019-01-08T23:04:41.509Z,99139.08
2019-01-08T23:07:09.300Z,99138.16
2019-01-08T23:09:37.192Z,99136.61
2019-01-08T23:12:05.231Z,99138.36
2019-01-08T23:14:33.029Z,99138.98
2019-01-08T23:17:00.937Z,99139.58
2019-01-08T23:19:28.711Z,99140.61
2019-01-08T23:21:56.610Z,99145.64
2019-01-08T23:24:24.360Z,99141.36
2019-01-08T23:26:52.250Z,99139.08
2019-01-08T23:29:20.239Z,99151.14
2019-01-08T23:31:50.329Z,99154.84
2019-01-08T23:34:18.102Z,99162.42
2019-01-08T23:36:46.029Z,99171.23
2019-01-08T23:39:13.764Z,99162.39
2019-01-08T23:41:41.986Z,99158.39
2019-01-08T23:44:09.756Z,99157.76
2019-01-08T23:46:37.678Z,99154.70
2019-01-08T23:49:05.383Z,99152.77
2019-01-08T23:51:33.386Z,99151.93
2019-01-08T23:54:02.440Z,99137.08
2019-01-08T23:56:35.078Z,99139.53
2019-01-08T23:59:02.849Z,99136.88
